createdAt,value
2018-05-12T00:02:14.189Z,8.50
2018-05-12T00:05:16.839Z,6.97
2018-05-12T00:08:19.626Z,8.47
2018-05-12T00:11:23.116Z,8.00
2018-05-12T00:14:25.984Z,7.80
2018-05-12T00:17:28.534Z,7.73
2018-05-12T00:20:31.129Z,8.60
2018-05-12T00:23:33.753Z,7.80
2018-05-12T00:26:36.345Z,9.20
2018-05-12T00:29:38.991Z,8.50
2018-05-12T00:32:41.612Z,8.07
2018-05-12T00:35:44.201Z,8.53
2018-05-12T00:38:46.767Z,8.47
2018-05-12T00:41:49.412Z,7.90
2018-05-12T00:44:52.801Z,7.77
2018-05-12T00:47:56.201Z,8.23
2018-05-12T00:50:58.845Z,9.97
2018-05-12T00:54:01.508Z,8.20
2018-05-12T00:57:04.161Z,8.63
2018-05-12T01:00:06.792Z,9.13
2018-05-12T01:03:09.452Z,7.67
2018-05-12T01:06:12.084Z,9.33
2018-05-12T01:09:14.768Z,9.17
2018-05-12T01:12:17.392Z,8.20
2018-05-12T01:15:20.040Z,8.00
2018-05-12T01:18:22.780Z,8.90
2018-05-12T01:21:25.389Z,7.90
2018-05-12T01:24:27.961Z,8.80
2018-05-12T01:27:30.533Z,8.00
2018-05-12T01:30:33.103Z,9.00
2018-05-12T01:33:35.734Z,9.37
2018-05-12T01:36:38.461Z,8.00
2018-05-12T01:39:44.802Z,8.93
2018-05-12T01:42:47.450Z,9.17
2018-05-12T01:45:50.061Z,8.90
2018-05-12T01:48:52.646Z,8.20
2018-05-12T01:51:55.282Z,8.17
2018-05-12T01:54:58.033Z,8.10
2018-05-12T01:58:01.399Z,8.50
2018-05-12T02:01:03.991Z,9.10
2018-05-12T02:04:06.607Z,10.00
2018-05-12T02:07:09.185Z,8.47
2018-05-12T02:10:12.552Z,8.40
2018-05-12T02:13:15.911Z,7.20
2018-05-12T02:16:18.505Z,10.27
2018-05-12T02:19:21.117Z,9.00
2018-05-12T02:22:23.840Z,7.80
2018-05-12T02:25:26.480Z,9.17
2018-05-12T02:28:29.109Z,8.60
2018-05-12T02:31:31.696Z,8.17
2018-05-12T02:34:34.283Z,8.97
2018-05-12T02:37:36.992Z,8.47
2018-05-12T02:40:39.592Z,9.00
2018-05-12T02:43:43.693Z,8.13
2018-05-12T02:46:46.264Z,9.57
2018-05-12T02:49:48.867Z,9.23
2018-05-12T02:52:52.485Z,10.33
2018-05-12T02:55:55.084Z,8.17
2018-05-12T02:58:58.595Z,8.30
2018-05-12T03:02:01.299Z,9.10
2018-05-12T03:05:04.995Z,7.93
2018-05-12T03:08:08.658Z,8.13
2018-05-12T03:11:11.505Z,9.10
2018-05-12T03:14:15.840Z,9.37
2018-05-12T03:17:18.832Z,9.10
2018-05-12T03:20:21.405Z,8.20
2018-05-12T03:23:24.298Z,9.83
2018-05-12T03:26:27.091Z,8.70
2018-05-12T03:29:29.815Z,8.90
2018-05-12T03:32:32.886Z,9.50
2018-05-12T03:35:35.674Z,9.37
2018-05-12T03:38:38.295Z,9.87
2018-05-12T03:41:40.951Z,10.27
2018-05-12T03:44:43.712Z,9.13
2018-05-12T03:47:46.299Z,9.07
2018-05-12T03:50:49.506Z,10.30
2018-05-12T03:53:52.285Z,9.10
2018-05-12T03:56:55.038Z,8.30
2018-05-12T03:59:57.861Z,9.17
2018-05-12T04:03:00.379Z,8.23
2018-05-12T04:06:14.970Z,8.33
2018-05-12T04:09:29.269Z,9.07
2018-05-12T04:12:39.503Z,8.03
2018-05-12T04:15:42.487Z,8.80
2018-05-12T04:18:45.088Z,8.70
2018-05-12T04:21:47.660Z,9.03
2018-05-12T04:24:50.243Z,9.60
2018-05-12T04:27:52.851Z,10.60
2018-05-12T04:30:55.428Z,9.53
2018-05-12T04:33:58.022Z,10.27
2018-05-12T04:37:01.454Z,10.10
2018-05-12T04:40:04.052Z,10.53
2018-05-12T04:43:06.667Z,10.83
2018-05-12T04:46:09.252Z,8.67
2018-05-12T04:49:12.203Z,9.27
2018-05-12T04:52:14.771Z,9.67
2018-05-12T04:55:18.149Z,9.70
2018-05-12T04:58:20.786Z,11.07
2018-05-12T05:01:23.552Z,10.43
2018-05-12T05:04:26.236Z,10.13
2018-05-12T05:07:28.922Z,10.50
2018-05-12T05:10:32.045Z,8.60
2018-05-12T05:13:34.665Z,9.27
2018-05-12T05:16:37.231Z,9.87
2018-05-12T05:19:39.976Z,11.00
2018-05-12T05:22:42.712Z,8.60
2018-05-12T05:25:46.815Z,10.30
2018-05-12T05:28:49.458Z,11.43
2018-05-12T05:31:52.048Z,8.30
2018-05-12T05:34:54.642Z,11.50
2018-05-12T05:37:57.236Z,10.07
2018-05-12T05:40:59.969Z,10.03
2018-05-12T05:44:03.364Z,9.90
2018-05-12T05:47:06.042Z,10.13
2018-05-12T05:50:08.739Z,10.07
2018-05-12T05:53:12.059Z,9.90
2018-05-12T05:56:14.750Z,9.70
2018-05-12T05:59:17.453Z,8.63
2018-05-12T06:02:20.076Z,9.63
2018-05-12T06:05:22.789Z,10.90
2018-05-12T06:08:25.379Z,8.30
2018-05-12T06:11:28.021Z,10.17
2018-05-12T06:14:31.397Z,9.93
2018-05-12T06:17:34.058Z,8.93
2018-05-12T06:20:36.826Z,9.37
2018-05-12T06:23:39.483Z,9.70
2018-05-12T06:26:42.074Z,10.03
2018-05-12T06:29:44.774Z,9.40
2018-05-12T06:32:47.376Z,9.60
2018-05-12T06:35:50.258Z,10.57
2018-05-12T06:38:52.978Z,10.43
2018-05-12T06:41:55.578Z,9.33
2018-05-12T06:44:58.322Z,10.23
2018-05-12T06:48:00.895Z,9.77
2018-05-12T06:51:03.528Z,8.80
2018-05-12T06:54:06.877Z,9.00
2018-05-12T06:57:09.465Z,9.57
2018-05-12T07:00:12.053Z,8.63
2018-05-12T07:03:14.672Z,8.90
2018-05-12T07:06:18.045Z,9.40
2018-05-12T07:09:20.689Z,9.87
2018-05-12T07:12:23.354Z,10.43
2018-05-12T07:15:26.709Z,9.93
2018-05-12T07:18:29.301Z,9.10
2018-05-12T07:21:31.878Z,9.43
2018-05-12T07:24:34.488Z,8.55
2018-05-12T07:27:37.999Z,7.28
2018-05-12T07:30:41.534Z,7.80
2018-05-12T07:33:44.143Z,8.57
2018-05-12T07:36:46.753Z,8.98
2018-05-12T07:39:49.342Z,7.97
2018-05-12T07:42:52.737Z,7.35
2018-05-12T07:45:55.335Z,5.75
2018-05-12T07:48:58.744Z,8.70
2018-05-12T07:52:01.321Z,7.60
2018-05-12T07:55:04.083Z,7.00
2018-05-12T07:58:06.663Z,5.82
2018-05-12T08:01:09.300Z,5.75
2018-05-12T08:04:11.879Z,5.57
2018-05-12T08:07:14.530Z,4.97
2018-05-12T08:10:18.153Z,5.65
2018-05-12T08:13:20.836Z,5.68
2018-05-12T08:16:23.470Z,5.93
2018-05-12T08:19:27.027Z,5.18
2018-05-12T08:22:29.619Z,7.30
2018-05-12T08:25:32.201Z,6.43
2018-05-12T08:32:16.017Z,6.00
2018-05-12T08:35:18.651Z,5.65
2018-05-12T08:38:21.276Z,6.05
2018-05-12T08:41:23.906Z,5.63
2018-05-12T08:44:26.628Z,6.27
2018-05-12T08:47:29.398Z,6.37
2018-05-12T08:50:32.004Z,7.10
2018-05-12T08:53:34.605Z,7.00
2018-05-12T08:56:37.325Z,6.20
2018-05-12T08:59:39.996Z,5.93
2018-05-12T09:02:42.636Z,6.00
2018-05-12T09:05:45.255Z,5.80
2018-05-12T09:08:48.679Z,5.80
2018-05-12T09:11:51.444Z,7.37
2018-05-12T09:14:54.545Z,5.97
2018-05-12T09:17:57.226Z,7.67
2018-05-12T09:21:01.762Z,6.40
2018-05-12T09:24:04.491Z,7.30
2018-05-12T09:27:09.244Z,7.20
2018-05-12T09:30:11.893Z,6.43
2018-05-12T09:33:14.509Z,7.80
2018-05-12T09:36:17.223Z,7.83
2018-05-12T09:39:20.824Z,7.33
2018-05-12T09:42:23.674Z,7.43
2018-05-12T09:45:26.328Z,8.07
2018-05-12T09:48:28.953Z,8.23
2018-05-12T09:51:32.553Z,6.67
2018-05-12T09:54:35.174Z,7.40
2018-05-12T09:57:38.792Z,6.90
2018-05-12T10:00:41.435Z,7.53
2018-05-12T10:03:44.117Z,7.90
2018-05-12T10:06:47.068Z,8.63
2018-05-12T10:09:49.853Z,8.13
2018-05-12T10:12:52.582Z,9.23
2018-05-12T10:15:55.223Z,8.73
2018-05-12T10:18:57.991Z,9.00
2018-05-12T10:22:00.623Z,9.63
2018-05-12T10:25:04.051Z,9.60
2018-05-12T10:28:06.764Z,9.57
2018-05-12T10:31:10.312Z,11.40
2018-05-12T10:34:12.960Z,9.63
2018-05-12T10:37:15.640Z,9.93
2018-05-12T10:40:18.306Z,10.70
2018-05-12T10:43:21.016Z,10.53
2018-05-12T10:46:23.650Z,10.70
2018-05-12T10:49:26.390Z,10.40
2018-05-12T10:52:29.009Z,11.43
2018-05-12T10:55:31.716Z,12.43
2018-05-12T10:58:34.382Z,11.93
2018-05-12T11:01:37.003Z,12.17
2018-05-12T11:04:39.616Z,12.97
2018-05-12T11:07:44.019Z,14.10
2018-05-12T11:10:46.663Z,14.00
2018-05-12T11:13:50.038Z,13.90
2018-05-12T11:16:52.663Z,15.43
2018-05-12T11:19:55.252Z,14.47
2018-05-12T11:22:57.970Z,15.00
2018-05-12T11:26:00.566Z,14.80
2018-05-12T11:29:03.506Z,15.50
2018-05-12T11:32:06.363Z,14.80
2018-05-12T11:35:08.976Z,15.20
2018-05-12T11:38:11.591Z,14.13
2018-05-12T11:41:15.286Z,14.33
2018-05-12T11:44:19.368Z,13.25
2018-05-12T11:47:22.696Z,13.47
2018-05-12T11:50:25.486Z,11.30
2018-05-12T11:53:28.118Z,12.00
2018-05-12T11:56:32.748Z,13.27
2018-05-12T11:59:35.479Z,12.60
2018-05-12T12:02:39.048Z,11.60
2018-05-12T12:05:42.528Z,11.93
2018-05-12T12:08:45.398Z,10.70
2018-05-12T12:11:48.921Z,12.50
2018-05-12T12:14:51.808Z,12.10
2018-05-12T12:17:54.586Z,11.70
2018-05-12T12:20:57.246Z,11.23
2018-05-12T12:24:00.518Z,12.27
2018-05-12T12:27:03.126Z,10.83
2018-05-12T12:30:05.759Z,11.23
2018-05-12T12:33:08.388Z,11.50
2018-05-12T12:36:11.040Z,11.80
2018-05-12T12:39:13.736Z,10.93
2018-05-12T12:42:16.379Z,10.63
2018-05-12T12:45:19.743Z,9.23
2018-05-12T12:48:22.379Z,10.07
2018-05-12T12:51:25.766Z,10.70
2018-05-12T12:54:28.812Z,10.20
2018-05-12T12:57:31.405Z,10.50
2018-05-12T13:00:34.100Z,10.50
2018-05-12T13:03:37.037Z,11.03
2018-05-12T13:06:39.658Z,10.20
2018-05-12T13:09:42.238Z,10.73
2018-05-12T13:12:44.892Z,9.30
2018-05-12T13:15:47.527Z,10.87
2018-05-12T13:18:50.979Z,10.83
2018-05-12T13:21:53.703Z,11.53
2018-05-12T13:24:56.316Z,9.87
2018-05-12T13:27:59.089Z,11.33
2018-05-12T13:31:02.322Z,11.00
2018-05-12T13:34:04.992Z,11.40
2018-05-12T13:37:07.607Z,11.20
2018-05-12T13:40:10.246Z,11.20
2018-05-12T13:43:12.874Z,10.77
2018-05-12T13:46:15.502Z,11.07
2018-05-12T13:49:18.235Z,11.80
2018-05-12T13:52:20.816Z,10.13
2018-05-12T13:55:24.266Z,10.37
2018-05-12T13:58:26.861Z,10.43
2018-05-12T14:01:29.534Z,11.27
2018-05-12T14:04:32.130Z,10.10
2018-05-12T14:07:35.049Z,9.57
2018-05-12T14:10:37.680Z,9.73
2018-05-12T14:13:40.295Z,10.07
2018-05-12T14:16:43.966Z,10.30
2018-05-12T14:22:55.830Z,11.10
2018-05-12T14:25:59.315Z,10.73
2018-05-12T14:29:03.433Z,10.93
2018-05-12T14:32:06.881Z,10.87
2018-05-12T14:35:09.493Z,10.90
2018-05-12T14:38:12.132Z,9.80
2018-05-12T14:41:14.840Z,9.83
2018-05-12T14:44:17.471Z,9.53
2018-05-12T14:47:21.711Z,9.77
2018-05-12T14:50:24.615Z,9.77
2018-05-12T14:53:28.321Z,9.83
2018-05-12T14:56:30.948Z,10.70
2018-05-12T14:59:33.528Z,9.83
2018-05-12T15:02:36.575Z,12.40
2018-05-12T15:05:39.214Z,12.17
2018-05-12T15:08:42.042Z,13.00
2018-05-12T15:11:44.647Z,11.67
2018-05-12T15:14:47.371Z,12.13
2018-05-12T15:17:49.909Z,11.37
2018-05-12T15:20:52.611Z,10.27
2018-05-12T15:23:55.245Z,10.00
2018-05-12T15:26:57.920Z,10.73
2018-05-12T15:30:01.419Z,10.57
2018-05-12T15:33:04.814Z,10.37
2018-05-12T15:36:07.493Z,10.03
2018-05-12T15:39:10.073Z,9.83
2018-05-12T15:42:12.818Z,9.20
2018-05-12T15:45:15.427Z,9.23
2018-05-12T15:48:18.068Z,9.40
2018-05-12T15:51:20.660Z,10.10
2018-05-12T15:54:23.406Z,11.00
2018-05-12T15:57:26.181Z,10.27
2018-05-12T16:00:28.750Z,11.83
2018-05-12T16:03:31.359Z,10.33
2018-05-12T16:06:34.744Z,11.13
2018-05-12T16:09:38.172Z,11.03
2018-05-12T16:12:40.902Z,9.67
2018-05-12T16:15:43.738Z,12.17
2018-05-12T16:18:46.855Z,12.90
2018-05-12T16:21:49.994Z,12.93
2018-05-12T16:24:54.514Z,13.83
2018-05-12T16:27:57.163Z,14.33
2018-05-12T16:31:00.863Z,14.47
2018-05-12T16:34:04.489Z,14.07
2018-05-12T16:37:08.583Z,13.20
2018-05-12T16:40:11.214Z,12.87
2018-05-12T16:43:13.807Z,12.33
2018-05-12T16:46:16.456Z,11.10
2018-05-12T16:49:20.582Z,10.97
2018-05-12T16:52:23.196Z,11.97
2018-05-12T16:55:25.807Z,11.50
2018-05-12T16:58:28.497Z,11.30
2018-05-12T17:01:31.100Z,12.50
2018-05-12T17:04:34.483Z,11.77
2018-05-12T17:07:37.170Z,12.07
2018-05-12T17:10:39.843Z,12.03
2018-05-12T17:13:42.542Z,14.30
2018-05-12T17:16:45.163Z,11.03
2018-05-12T17:19:47.774Z,12.87
2018-05-12T17:22:51.133Z,12.73
2018-05-12T17:25:53.752Z,12.80
2018-05-12T17:28:56.339Z,11.70
2018-05-12T17:31:59.814Z,10.47
2018-05-12T17:35:02.480Z,10.70
2018-05-12T17:38:05.405Z,10.33
2018-05-12T17:41:08.820Z,11.60
2018-05-12T17:44:11.541Z,11.83
2018-05-12T17:47:14.852Z,9.50
2018-05-12T17:50:18.701Z,9.53
2018-05-12T17:53:21.713Z,11.25
2018-05-12T17:56:25.214Z,10.50
2018-05-12T17:59:28.588Z,11.57
2018-05-12T18:02:31.718Z,11.43
2018-05-12T18:05:34.313Z,11.63
2018-05-12T18:08:36.963Z,12.27
2018-05-12T18:11:41.204Z,11.37
2018-05-12T18:14:43.812Z,11.00
2018-05-12T18:17:46.597Z,11.97
2018-05-12T18:20:49.282Z,11.83
2018-05-12T18:23:51.858Z,12.77
2018-05-12T18:26:54.508Z,11.93
2018-05-12T18:29:57.415Z,13.03
2018-05-12T18:33:00.132Z,13.40
2018-05-12T18:36:02.737Z,13.23
2018-05-12T18:39:06.304Z,14.63
2018-05-12T18:42:09.266Z,12.33
2018-05-12T18:45:11.891Z,12.10
2018-05-12T18:48:14.488Z,12.33
2018-05-12T18:51:17.150Z,12.20
2018-05-12T18:54:19.819Z,12.10
2018-05-12T18:57:22.472Z,12.10
2018-05-12T19:00:25.075Z,11.60
2018-05-12T19:03:29.846Z,12.10
2018-05-12T19:06:32.545Z,11.03
2018-05-12T19:09:35.134Z,11.27
2018-05-12T19:12:37.788Z,11.87
2018-05-12T19:15:40.628Z,11.53
2018-05-12T19:18:43.412Z,13.63
2018-05-12T19:21:47.019Z,13.30
2018-05-12T19:24:49.584Z,12.50
2018-05-12T19:27:53.026Z,13.43
2018-05-12T19:30:55.719Z,14.10
2018-05-12T19:33:58.602Z,14.80
2018-05-12T19:37:01.631Z,14.10
2018-05-12T19:40:04.306Z,13.10
2018-05-12T19:43:06.963Z,14.10
2018-05-12T19:46:09.686Z,16.07
2018-05-12T19:49:12.313Z,14.40
2018-05-12T19:52:14.916Z,15.83
2018-05-12T19:55:18.115Z,16.10
2018-05-12T19:58:21.009Z,17.67
2018-05-12T20:01:24.246Z,15.30
2018-05-12T20:04:26.859Z,14.70
2018-05-12T20:07:29.515Z,13.30
2018-05-12T20:10:32.230Z,12.20
2018-05-12T20:13:34.834Z,13.37
2018-05-12T20:16:37.689Z,15.47
2018-05-12T20:19:41.002Z,16.70
2018-05-12T20:22:43.671Z,16.13
2018-05-12T20:25:46.400Z,18.40
2018-05-12T20:28:49.042Z,16.57
2018-05-12T20:31:51.723Z,16.77
2018-05-12T20:34:54.566Z,15.97
2018-05-12T20:37:57.652Z,17.03
2018-05-12T20:41:00.256Z,15.70
2018-05-12T20:44:02.935Z,14.10
2018-05-12T20:47:05.629Z,14.80
2018-05-12T20:50:08.553Z,17.13
2018-05-12T20:53:11.178Z,15.47
2018-05-12T20:56:13.856Z,15.03
2018-05-12T20:59:16.754Z,13.90
2018-05-12T21:02:19.426Z,15.10
2018-05-12T21:05:23.007Z,15.57
2018-05-12T21:08:25.715Z,14.60
2018-05-12T21:11:28.293Z,14.20
2018-05-12T21:14:30.888Z,12.00
2018-05-12T21:17:33.724Z,16.17
2018-05-12T21:20:36.565Z,14.50
2018-05-12T21:23:39.266Z,15.27
2018-05-12T21:26:41.981Z,12.90
2018-05-12T21:29:44.592Z,12.70
2018-05-12T21:32:47.188Z,12.50
2018-05-12T21:35:49.791Z,13.27
2018-05-12T21:38:53.369Z,13.70
2018-05-12T21:41:55.993Z,13.63
2018-05-12T21:44:58.694Z,13.80
2018-05-12T21:48:01.297Z,12.37
2018-05-12T21:51:03.912Z,14.33
2018-05-12T21:54:07.436Z,15.33
2018-05-12T21:57:10.020Z,13.60
2018-05-12T22:00:13.073Z,13.63
2018-05-12T22:03:15.679Z,13.73
2018-05-12T22:06:18.331Z,14.20
2018-05-12T22:09:20.901Z,13.00
2018-05-12T22:12:23.524Z,12.17
2018-05-12T22:15:26.124Z,13.70
2018-05-12T22:18:28.771Z,15.67
2018-05-12T22:21:31.375Z,14.67
2018-05-12T22:24:34.026Z,14.60
2018-05-12T22:27:36.618Z,16.10
2018-05-12T22:30:39.286Z,13.37
2018-05-12T22:33:41.925Z,13.20
2018-05-12T22:36:45.254Z,13.77
2018-05-12T22:39:47.894Z,14.37
2018-05-12T22:42:50.594Z,14.77
2018-05-12T22:45:54.147Z,13.53
2018-05-12T22:48:57.031Z,14.50
2018-05-12T22:51:59.678Z,13.93
2018-05-12T22:55:03.052Z,14.00
2018-05-12T22:58:05.675Z,12.83
2018-05-12T23:01:08.347Z,13.57
2018-05-12T23:04:11.781Z,13.63
2018-05-12T23:07:14.391Z,14.30
2018-05-12T23:10:17.030Z,13.90
2018-05-12T23:13:19.654Z,14.00
2018-05-12T23:16:22.252Z,14.37
2018-05-12T23:19:24.881Z,12.73
2018-05-12T23:22:27.486Z,13.13
2018-05-12T23:25:30.086Z,12.73
2018-05-12T23:28:32.690Z,13.17
2018-05-12T23:31:35.303Z,12.00
2018-05-12T23:34:38.403Z,12.47
2018-05-12T23:37:41.009Z,12.47
2018-05-12T23:40:43.640Z,12.30
2018-05-12T23:43:47.004Z,12.33
2018-05-12T23:46:49.644Z,11.93
2018-05-12T23:49:52.236Z,13.00
2018-05-12T23:52:54.934Z,11.87
2018-05-12T23:55:57.520Z,10.20
2018-05-12T23:59:00.836Z,11.33
